Menu Close Menu
Station Historical Data
Daily Summary for November 28, 2017 Units:  English    Metric   Both
« Previous Day
Next Day »
Daily Weekly Monthly Yearly Custom
  High: Low: Average:
Temperature: 64.9 °F 37.0 °F 48.7 °F
Dew Point: 42.4 °F 30.4 °F 35.2 °F
Humidity: 81% 31% 62%
Wind Speed: 4.6mph 0.0mph 0.8mph
Wind Gust: 4.6mph - -
Wind- - WNW
Pressure: 30.38 in 30.27 in -
Precipitation: 0.00 in    
Historical Graphs
 
 
Tabular Data for November 28, 2017
Time Temperature Dew Point Pressure Wind Wind Speed Wind Gust Humidity Rainfall Rate (Hourly) solar Conditions
00:01 41.7 °F 34.0 °F 30.28 in Calm     74% 0.00 in WeatherDisplay:10.37 W/m2 CLR
00:06 41.3 °F 34.0 °F 30.28 in Calm     75% 0.00 in WeatherDisplay:10.37 W/m2 CLR
00:12 41.1 °F 33.8 °F 30.28 in Calm     75% 0.00 in WeatherDisplay:10.37 W/m2 CLR
00:17 40.9 °F 34.2 °F 30.28 in Calm     77% 0.00 in WeatherDisplay:10.37 W/m2 CLR
00:22 40.8 °F 34.1 °F 30.28 in Calm     77% 0.00 in WeatherDisplay:10.37 W/m2 CLR
00:27 40.7 °F 33.7 °F 30.28 in Calm     76% 0.00 in WeatherDisplay:10.37 W/m2 CLR
00:33 40.6 °F 33.3 °F 30.27 in Calm     75% 0.00 in WeatherDisplay:10.37 W/m2 CLR
00:38 40.7 °F 33.1 °F 30.27 in Calm     74% 0.00 in WeatherDisplay:10.37 W/m2 CLR
00:43 41.0 °F 32.7 °F 30.27 in Calm     72% 0.00 in WeatherDisplay:10.37 W/m2 CLR
00:48 41.6 °F 32.5 °F 30.27 in Calm     70% 0.00 in WeatherDisplay:10.37 W/m2 CLR
00:53 42.0 °F 32.2 °F 30.27 in Calm     68% 0.00 in WeatherDisplay:10.37 W/m2 CLR
00:58 42.3 °F 32.1 °F 30.27 in Calm     67% 0.00 in WeatherDisplay:10.37 W/m2 CLR
01:03 42.5 °F 32.3 °F 30.27 in Calm     67% 0.00 in WeatherDisplay:10.37 W/m2 CLR
01:08 42.4 °F 32.2 °F 30.27 in Calm     67% 0.00 in WeatherDisplay:10.37 W/m2 CLR
01:13 42.2 °F 32.4 °F 30.27 in Calm     68% 0.00 in WeatherDisplay:10.37 W/m2 CLR
01:18 42.1 °F 32.3 °F 30.27 in Calm     68% 0.00 in WeatherDisplay:10.37 W/m2 CLR
01:23 42.0 °F 32.2 °F 30.27 in Calm     68% 0.00 in WeatherDisplay:10.37 W/m2 CLR
01:28 41.9 °F 32.1 °F 30.27 in Calm     68% 0.00 in WeatherDisplay:10.37 W/m2 CLR
01:33 41.8 °F 32.0 °F 30.27 in Calm     68% 0.00 in WeatherDisplay:10.37 W/m2 CLR
01:39 41.7 °F 31.9 °F 30.27 in Calm     68% 0.00 in WeatherDisplay:10.37 W/m2 CLR
01:44 41.9 °F 32.1 °F 30.27 in Calm     68% 0.00 in WeatherDisplay:10.37 W/m2 CLR
01:49 42.1 °F 31.9 °F 30.27 in Calm     67% 0.00 in WeatherDisplay:10.37 W/m2 CLR
01:54 42.2 °F 32.0 °F 30.27 in Calm     67% 0.00 in WeatherDisplay:10.37 W/m2 CLR
01:59 42.1 °F 31.9 °F 30.27 in Calm     67% 0.00 in WeatherDisplay:10.37 W/m2 CLR
02:04 41.8 °F 32.0 °F 30.27 in Calm     68% 0.00 in WeatherDisplay:10.37 W/m2 CLR
02:09 42.0 °F 32.2 °F 30.27 in Calm     68% 0.00 in WeatherDisplay:10.37 W/m2 CLR
02:14 42.1 °F 31.9 °F 30.27 in Calm     67% 0.00 in WeatherDisplay:10.37 W/m2 CLR
02:19 42.2 °F 32.0 °F 30.27 in Calm     67% 0.00 in WeatherDisplay:10.37 W/m2 CLR
02:24 42.1 °F 31.9 °F 30.28 in Calm     67% 0.00 in WeatherDisplay:10.37 W/m2 CLR
02:29 42.1 °F 32.3 °F 30.28 in Calm     68% 0.00 in WeatherDisplay:10.37 W/m2 CLR
02:34 41.9 °F 32.8 °F 30.28 in Calm     70% 0.00 in WeatherDisplay:10.37 W/m2 CLR
02:39 41.7 °F 32.6 °F 30.28 in Calm     70% 0.00 in WeatherDisplay:10.37 W/m2 CLR
02:44 41.5 °F 32.8 °F 30.28 in Calm     71% 0.00 in WeatherDisplay:10.37 W/m2 CLR
02:46 41.4 °F 33.0 °F 30.28 in Calm     72% 0.00 in WeatherDisplay:10.37 W/m2 CLR
02:51 41.1 °F 33.1 °F 30.28 in Calm     73% 0.00 in WeatherDisplay:10.37 W/m2 CLR
02:56 40.8 °F 33.2 °F 30.28 in Calm     74% 0.00 in WeatherDisplay:10.37 W/m2 CLR
02:57 40.8 °F 33.2 °F 30.28 in Calm     74% 0.00 in WeatherDisplay:10.37 W/m2 CLR
03:02 40.6 °F 33.0 °F 30.29 in Calm     74% 0.00 in WeatherDisplay:10.37 W/m2 CLR
03:07 40.2 °F 32.9 °F 30.29 in Calm     75% 0.00 in WeatherDisplay:10.37 W/m2 CLR
03:12 40.6 °F 32.6 °F 30.29 in Calm     73% 0.00 in WeatherDisplay:10.37 W/m2 CLR
03:17 40.6 °F 33.0 °F 30.28 in Calm     74% 0.00 in WeatherDisplay:10.37 W/m2 CLR
03:22 40.3 °F 32.7 °F 30.28 in Calm     74% 0.00 in WeatherDisplay:10.37 W/m2 CLR
03:27 40.4 °F 32.4 °F 30.29 in Calm     73% 0.00 in WeatherDisplay:10.37 W/m2 CLR
03:32 40.8 °F 32.8 °F 30.29 in Calm     73% 0.00 in WeatherDisplay:10.37 W/m2 CLR
03:37 40.6 °F 33.3 °F 30.28 in Calm     75% 0.00 in WeatherDisplay:10.37 W/m2 CLR
03:42 40.2 °F 33.2 °F 30.28 in Calm     76% 0.00 in WeatherDisplay:10.37 W/m2 CLR
03:48 39.8 °F 32.8 °F 30.28 in Calm     76% 0.00 in WeatherDisplay:10.37 W/m2 CLR
03:53 39.9 °F 32.9 °F 30.28 in Calm     76% 0.00 in WeatherDisplay:10.37 W/m2 CLR
03:58 39.9 °F 32.9 °F 30.28 in Calm     76% 0.00 in WeatherDisplay:10.37 W/m2 CLR
04:03 39.6 °F 31.7 °F 30.28 in Calm     73% 0.00 in WeatherDisplay:10.37 W/m2 CLR
04:08 39.5 °F 31.6 °F 30.28 in Calm     73% 0.00 in WeatherDisplay:10.37 W/m2 CLR
04:13 39.5 °F 31.6 °F 30.29 in Calm     73% 0.00 in WeatherDisplay:10.37 W/m2 CLR
04:18 39.6 °F 31.3 °F 30.29 in Calm     72% 0.00 in WeatherDisplay:10.37 W/m2 CLR
04:23 39.6 °F 31.7 °F 30.29 in Calm     73% 0.00 in WeatherDisplay:10.37 W/m2 CLR
04:28 39.5 °F 31.2 °F 30.29 in Calm     72% 0.00 in WeatherDisplay:10.37 W/m2 CLR
04:33 39.3 °F 31.0 °F 30.29 in Calm     72% 0.00 in WeatherDisplay:10.37 W/m2 CLR
04:38 39.4 °F 31.1 °F 30.29 in Calm     72% 0.00 in WeatherDisplay:10.37 W/m2 CLR
04:43 39.4 °F 31.1 °F 30.29 in Calm     72% 0.00 in WeatherDisplay:10.37 W/m2 CLR
04:48 39.3 °F 31.0 °F 30.29 in Calm     72% 0.00 in WeatherDisplay:10.37 W/m2 CLR
04:54 39.2 °F 30.9 °F 30.30 in Calm     72% 0.00 in WeatherDisplay:10.37 W/m2 CLR
04:59 39.3 °F 30.7 °F 30.29 in Calm     71% 0.00 in WeatherDisplay:10.37 W/m2 CLR
05:04 39.3 °F 31.4 °F 30.30 in Calm     73% 0.00 in WeatherDisplay:10.37 W/m2 CLR
05:09 39.1 °F 31.2 °F 30.30 in Calm     73% 0.00 in WeatherDisplay:10.37 W/m2 CLR
05:14 38.9 °F 31.3 °F 30.30 in Calm     74% 0.00 in WeatherDisplay:10.37 W/m2 CLR
05:19 38.8 °F 31.6 °F 30.30 in Calm     75% 0.00 in WeatherDisplay:10.37 W/m2 CLR
05:24 39.1 °F 31.2 °F 30.30 in Calm     73% 0.00 in WeatherDisplay:10.37 W/m2 CLR
05:29 39.3 °F 31.0 °F 30.30 in Calm     72% 0.00 in WeatherDisplay:10.37 W/m2 CLR
05:34 39.1 °F 31.8 °F 30.30 in Calm     75% 0.00 in WeatherDisplay:10.37 W/m2 CLR
05:35 39.1 °F 31.8 °F 30.30 in Calm     75% 0.00 in WeatherDisplay:10.37 W/m2 CLR
05:40 38.8 °F 31.6 °F 30.31 in Calm     75% 0.00 in WeatherDisplay:10.37 W/m2 CLR
05:45 38.5 °F 31.6 °F 30.31 in Calm     76% 0.00 in WeatherDisplay:10.37 W/m2 CLR
05:50 38.3 °F 32.0 °F 30.31 in Calm     78% 0.00 in WeatherDisplay:10.37 W/m2 CLR
05:55 38.0 °F 32.1 °F 30.31 in Calm     79% 0.00 in WeatherDisplay:10.37 W/m2 CLR
06:00 37.7 °F 31.8 °F 30.31 in Calm     79% 0.00 in WeatherDisplay:10.37 W/m2 CLR
06:05 37.9 °F 31.3 °F 30.31 in Calm     77% 0.00 in WeatherDisplay:10.37 W/m2 CLR
06:10 37.9 °F 31.3 °F 30.31 in Calm     77% 0.00 in WeatherDisplay:10.37 W/m2 CLR
06:16 38.0 °F 30.4 °F 30.31 in Calm     74% 0.00 in WeatherDisplay:10.37 W/m2 CLR
06:21 38.2 °F 31.0 °F 30.31 in Calm     75% 0.00 in WeatherDisplay:10.37 W/m2 CLR
06:26 38.1 °F 31.2 °F 30.31 in Calm     76% 0.00 in WeatherDisplay:10.37 W/m2 CLR
06:31 38.0 °F 31.1 °F 30.32 in Calm     76% 0.00 in WeatherDisplay:10.37 W/m2 CLR
06:36 38.2 °F 31.3 °F 30.32 in Calm     76% 0.00 in WeatherDisplay:10.37 W/m2 CLR
06:41 38.3 °F 31.1 °F 30.32 in Calm     75% 0.00 in WeatherDisplay:10.37 W/m2 CLR
06:46 38.1 °F 31.2 °F 30.33 in Calm     76% 0.00 in WeatherDisplay:10.37 W/m2 CLR
06:51 37.9 °F 31.3 °F 30.33 in Calm     77% 0.00 in WeatherDisplay:10.37 W/m2 CLR
06:56 37.6 °F 31.4 °F 30.33 in Calm     78% 0.00 in WeatherDisplay:10.37 W/m2 CLR
07:01 37.3 °F 31.4 °F 30.33 in Calm     79% 0.00 in WeatherDisplay:10.37 W/m2 CLR
07:06 37.2 °F 31.3 °F 30.33 in Calm     79% 0.00 in WeatherDisplay:10.37 W/m2 CLR
07:11 37.3 °F 30.4 °F 30.34 in Calm     76% 0.00 in WeatherDisplay:10.37 W/m2 CLR
07:22 38.1 °F 31.2 °F 30.34 in Calm     76% 0.00 in WeatherDisplay:10.37 W/m2 CLR
07:27 38.0 °F 31.4 °F 30.34 in Calm     77% 0.00 in WeatherDisplay:10.37 W/m2 CLR
07:37 37.5 °F 31.3 °F 30.35 in Calm     78% 0.00 in WeatherDisplay:10.37 W/m2 CLR
07:47 37.2 °F 31.6 °F 30.35 in Calm     80% 0.00 in WeatherDisplay:10.37 W/m2 CLR
07:57 37.0 °F 31.7 °F 30.35 in Calm     81% 0.00 in WeatherDisplay:10.37 W/m2 CLR
08:02 37.0 °F 31.7 °F 30.35 in Calm     81% 0.00 in WeatherDisplay:10.37 W/m2 FEW
08:12 37.5 °F 31.6 °F 30.36 in Calm     79% 0.00 in WeatherDisplay:10.37 W/m2 FEW
08:17 38.0 °F 31.7 °F 30.36 in Calm     78% 0.00 in WeatherDisplay:10.37 W/m2 FEW
08:23 39.3 °F 32.0 °F 30.36 in Calm     75% 0.00 in WeatherDisplay:10.37 W/m2 FEW
08:28 40.2 °F 32.2 °F 30.36 in Calm     73% 0.00 in WeatherDisplay:10.37 W/m2 FEW
08:33 41.1 °F 32.4 °F 30.36 in Calm     71% 0.00 in WeatherDisplay:10.37 W/m2 FEW
08:38 41.9 °F 32.8 °F 30.36 in WNW 1.2 mph   70% 0.00 in WeatherDisplay:10.37 W/m2 FEW
08:43 42.7 °F 32.9 °F 30.36 in WNW 1.2 mph 1.2 mph 68% 0.00 in WeatherDisplay:10.37 W/m2 FEW
08:53 43.9 °F 33.3 °F 30.37 in WNW 1.2 mph   66% 0.00 in WeatherDisplay:10.37 W/m2 FEW
09:03 44.8 °F 33.0 °F 30.37 in West 1.2 mph 1.2 mph 63% 0.00 in WeatherDisplay:10.37 W/m2 FEW
09:13 45.8 °F 33.1 °F 30.37 in West 1.2 mph 1.2 mph 61% 0.00 in WeatherDisplay:10.37 W/m2 FEW
09:19 46.6 °F 33.9 °F 30.37 in West 1.2 mph 1.2 mph 61% 0.00 in WeatherDisplay:10.37 W/m2 FEW
09:24 47.1 °F 33.9 °F 30.37 in West 1.2 mph 1.2 mph 60% 0.00 in WeatherDisplay:10.37 W/m2 FEW
09:34 48.0 °F 33.9 °F 30.38 in West 1.2 mph 1.2 mph 58% 0.00 in WeatherDisplay:10.37 W/m2 FEW
09:39 48.4 °F 33.4 °F 30.37 in West 2.3 mph 2.3 mph 56% 0.00 in WeatherDisplay:10.37 W/m2 FEW
09:44 48.8 °F 33.3 °F 30.38 in WNW 2.3 mph 2.3 mph 55% 0.00 in WeatherDisplay:10.37 W/m2 FEW
09:49 49.2 °F 33.7 °F 30.38 in West 2.3 mph 2.3 mph 55% 0.00 in WeatherDisplay:10.37 W/m2 FEW
09:59 49.9 °F 33.0 °F 30.38 in West 4.6 mph 4.6 mph 52% 0.00 in WeatherDisplay:10.37 W/m2 FEW
10:04 50.2 °F 32.8 °F 30.38 in West 4.6 mph 4.6 mph 51% 0.00 in WeatherDisplay:10.37 W/m2 FEW
10:09 50.5 °F 33.5 °F 30.38 in West 4.6 mph   52% 0.00 in WeatherDisplay:10.37 W/m2 FEW
10:20 52.5 °F 34.4 °F 30.38 in Calm   2.0 mph 50% 0.00 in WeatherDisplay:10.37 W/m2 FEW
10:25 53.5 °F 34.8 °F 30.38 in Calm   2.0 mph 49% 0.00 in WeatherDisplay:10.37 W/m2 FEW
10:30 54.6 °F 34.8 °F 30.38 in WNW 2.3 mph 2.3 mph 47% 0.00 in WeatherDisplay:10.37 W/m2 FEW
10:35 55.0 °F 33.5 °F 30.38 in WNW 2.3 mph 2.3 mph 44% 0.00 in WeatherDisplay:10.37 W/m2 FEW
10:40 55.1 °F 34.1 °F 30.38 in West 3.5 mph   45% 0.00 in WeatherDisplay:10.37 W/m2 FEW
10:45 55.3 °F 33.7 °F 30.38 in West 4.6 mph 4.6 mph 44% 0.00 in WeatherDisplay:10.37 W/m2 FEW
10:50 55.8 °F 34.2 °F 30.37 in West 4.6 mph 4.6 mph 44% 0.00 in WeatherDisplay:10.37 W/m2 FEW
10:55 56.2 °F 32.8 °F 30.37 in West 3.5 mph 3.5 mph 41% 0.00 in WeatherDisplay:10.37 W/m2 FEW
11:00 56.3 °F 32.9 °F 30.38 in WNW 3.5 mph 3.5 mph 41% 0.00 in WeatherDisplay:10.37 W/m2 FEW
11:05 56.7 °F 33.2 °F 30.38 in WNW 3.5 mph   41% 0.00 in WeatherDisplay:10.37 W/m2 FEW
11:10 57.0 °F 32.9 °F 30.38 in WNW 3.5 mph 3.5 mph 40% 0.00 in WeatherDisplay:10.37 W/m2 FEW
11:16 57.3 °F 33.8 °F 30.37 in WNW 3.5 mph   41% 0.00 in WeatherDisplay:10.37 W/m2 FEW
11:26 57.9 °F 33.1 °F 30.37 in WNW 2.3 mph 2.3 mph 39% 0.00 in WeatherDisplay:10.37 W/m2 FEW
11:36 58.6 °F 33.0 °F 30.36 in NW 3.5 mph   38% 0.00 in WeatherDisplay:10.37 W/m2 FEW
11:41 58.9 °F 32.0 °F 30.36 in WNW 3.5 mph 3.5 mph 36% 0.00 in WeatherDisplay:10.37 W/m2 FEW
11:46 59.4 °F 32.4 °F 30.36 in WNW 3.5 mph 3.5 mph 36% 0.00 in WeatherDisplay:10.37 W/m2 FEW
11:51 59.4 °F 31.7 °F 30.36 in WNW 3.5 mph 3.5 mph 35% 0.00 in WeatherDisplay:10.37 W/m2 FEW
11:56 59.5 °F 31.1 °F 30.36 in West 4.6 mph 4.6 mph 34% 0.00 in WeatherDisplay:10.37 W/m2 FEW
12:01 59.7 °F 32.0 °F 30.36 in West 4.6 mph 4.6 mph 35% 0.00 in WeatherDisplay:10.37 W/m2 FEW
12:06 59.9 °F 32.2 °F 30.35 in WNW 4.6 mph 4.6 mph 35% 0.00 in WeatherDisplay:10.37 W/m2 FEW
12:11 59.8 °F 31.3 °F 30.35 in West 4.6 mph 4.6 mph 34% 0.00 in WeatherDisplay:10.37 W/m2 FEW
12:16 59.9 °F 31.4 °F 30.35 in West 4.6 mph 4.6 mph 34% 0.00 in WeatherDisplay:10.37 W/m2 FEW
12:22 60.2 °F 32.4 °F 30.35 in WNW 4.6 mph   35% 0.00 in WeatherDisplay:10.37 W/m2 FEW
12:27 60.6 °F 31.3 °F 30.35 in WNW 4.6 mph 4.6 mph 33% 0.00 in WeatherDisplay:10.37 W/m2 FEW
12:42 61.9 °F 31.7 °F 30.34 in NW 4.6 mph 4.6 mph 32% 0.00 in WeatherDisplay:10.37 W/m2 FEW
12:47 62.0 °F 31.8 °F 30.34 in NW 4.6 mph 4.6 mph 32% 0.00 in WeatherDisplay:10.37 W/m2 FEW
12:52 62.1 °F 32.6 °F 30.34 in WNW 4.6 mph 4.6 mph 33% 0.00 in WeatherDisplay:10.37 W/m2 FEW
12:57 62.7 °F 32.4 °F 30.34 in WNW 2.3 mph 2.3 mph 32% 0.00 in WeatherDisplay:10.37 W/m2 FEW
13:02 62.7 °F 31.6 °F 30.33 in WNW 2.3 mph 2.3 mph 31% 0.00 in WeatherDisplay:10.37 W/m2 FEW
13:07 63.2 °F 32.8 °F 30.33 in NW 2.3 mph 2.3 mph 32% 0.00 in WeatherDisplay:10.37 W/m2 FEW
13:12 63.2 °F 32.8 °F 30.33 in WNW 2.3 mph   32% 0.00 in WeatherDisplay:10.37 W/m2 FEW
13:23 63.7 °F 33.3 °F 30.33 in West 1.2 mph 1.2 mph 32% 0.00 in WeatherDisplay:10.37 W/m2 FEW
13:28 63.5 °F 33.1 °F 30.33 in West 3.5 mph 3.5 mph 32% 0.00 in WeatherDisplay:10.37 W/m2 FEW
13:33 63.3 °F 32.9 °F 30.33 in WNW 3.5 mph 3.5 mph 32% 0.00 in WeatherDisplay:10.37 W/m2 FEW
13:43 63.2 °F 32.0 °F 30.32 in NNW 1.2 mph   31% 0.00 in WeatherDisplay:10.37 W/m2 FEW
13:48 62.9 °F 33.3 °F 30.32 in NNW 4.6 mph   33% 0.00 in WeatherDisplay:10.37 W/m2 FEW
13:58 62.9 °F 33.3 °F 30.32 in NW 2.3 mph 2.3 mph 33% 0.00 in WeatherDisplay:10.37 W/m2 FEW
14:03 63.0 °F 34.2 °F 30.32 in NW 2.3 mph   34% 0.00 in WeatherDisplay:10.37 W/m2 FEW
14:08 63.0 °F 34.2 °F 30.31 in NW 2.3 mph   34% 0.00 in WeatherDisplay:10.37 W/m2 FEW
14:18 63.2 °F 35.1 °F 30.31 in West 1.2 mph 1.2 mph 35% 0.00 in WeatherDisplay:10.37 W/m2 FEW
14:23 63.2 °F 35.1 °F 30.31 in WNW 1.2 mph   35% 0.00 in WeatherDisplay:10.37 W/m2 FEW
14:39 64.0 °F 36.5 °F 30.31 in WNW 2.3 mph 2.3 mph 36% 0.00 in WeatherDisplay:10.37 W/m2 FEW
14:49 64.4 °F 37.5 °F 30.30 in NNW 2.3 mph 2.3 mph 37% 0.00 in WeatherDisplay:10.37 W/m2 FEW
14:54 64.4 °F 38.9 °F 30.30 in WNW 2.3 mph 2.3 mph 39% 0.00 in WeatherDisplay:10.37 W/m2 FEW
14:59 64.7 °F 39.8 °F 30.30 in WNW 2.3 mph 2.3 mph 40% 0.00 in WeatherDisplay:10.37 W/m2 FEW
15:04 64.9 °F 39.3 °F 30.30 in NNW 1.2 mph 1.2 mph 39% 0.00 in WeatherDisplay:10.37 W/m2 FEW
15:19 64.0 °F 39.2 °F 30.30 in NW 2.3 mph 2.3 mph 40% 0.00 in WeatherDisplay:10.37 W/m2 FEW
15:24 64.0 °F 39.8 °F 30.30 in WNW 2.3 mph 2.3 mph 41% 0.00 in WeatherDisplay:10.37 W/m2 FEW
15:29 63.8 °F 40.3 °F 30.30 in West 1.2 mph   42% 0.00 in WeatherDisplay:10.37 W/m2 FEW
15:40 63.5 °F 40.0 °F 30.30 in Calm   1.0 mph 42% 0.00 in WeatherDisplay:10.37 W/m2 FEW
15:55 63.1 °F 40.8 °F 30.31 in NNW 1.2 mph   44% 0.00 in WeatherDisplay:10.37 W/m2 FEW
16:00 62.9 °F 41.2 °F 30.31 in NNW 1.2 mph   45% 0.00 in WeatherDisplay:10.37 W/m2 FEW
16:05 62.7 °F 40.5 °F 30.31 in NNW 3.5 mph 3.5 mph 44% 0.00 in WeatherDisplay:10.37 W/m2 CLR
16:10 62.7 °F 41.0 °F 30.31 in NNW 3.5 mph   45% 0.00 in WeatherDisplay:10.37 W/m2 CLR
16:20 62.2 °F 41.2 °F 30.31 in NNW 1.2 mph 1.2 mph 46% 0.00 in WeatherDisplay:10.37 W/m2 CLR
16:25 62.0 °F 41.5 °F 30.31 in NW 1.2 mph   47% 0.00 in WeatherDisplay:10.37 W/m2 CLR
16:36 61.6 °F 41.2 °F 30.31 in West 1.2 mph   47% 0.00 in WeatherDisplay:10.37 W/m2 CLR
16:46 61.3 °F 41.4 °F 30.31 in WNW 1.2 mph   48% 0.00 in WeatherDisplay:10.37 W/m2 CLR
16:56 60.7 °F 41.4 °F 30.31 in Calm     49% 0.00 in WeatherDisplay:10.37 W/m2 CLR
17:01 60.4 °F 41.7 °F 30.31 in Calm     50% 0.00 in WeatherDisplay:10.37 W/m2 CLR
17:11 59.6 °F 41.9 °F 30.31 in Calm     52% 0.00 in WeatherDisplay:10.37 W/m2 CLR
17:26 58.5 °F 42.4 °F 30.31 in Calm     55% 0.00 in WeatherDisplay:10.37 W/m2 CLR
17:31 58.2 °F 42.1 °F 30.31 in Calm     55% 0.00 in WeatherDisplay:10.37 W/m2 CLR
17:36 57.9 °F 42.3 °F 30.32 in Calm     56% 0.00 in WeatherDisplay:10.37 W/m2 CLR
17:41 57.6 °F 42.0 °F 30.32 in Calm     56% 0.00 in WeatherDisplay:10.37 W/m2 CLR
17:57 56.4 °F 42.2 °F 30.32 in Calm     59% 0.00 in WeatherDisplay:10.37 W/m2 CLR
18:02 55.8 °F 42.1 °F 30.32 in Calm     60% 0.00 in WeatherDisplay:10.37 W/m2 CLR
18:07 55.3 °F 42.1 °F 30.32 in Calm     61% 0.00 in WeatherDisplay:10.37 W/m2 CLR
18:10 54.9 °F 42.1 °F 30.32 in Calm     62% 0.00 in WeatherDisplay:10.37 W/m2 CLR
18:15 54.5 °F 42.2 °F 30.32 in Calm     63% 0.00 in WeatherDisplay:10.37 W/m2 CLR
18:21 54.4 °F 42.1 °F 30.32 in Calm     63% 0.00 in WeatherDisplay:10.37 W/m2 CLR
18:36 54.5 °F 42.2 °F 30.33 in NNW 1.2 mph   63% 0.00 in WeatherDisplay:10.37 W/m2 CLR
18:38 54.3 °F 42.0 °F 30.32 in NNW 1.2 mph   63% 0.00 in WeatherDisplay:10.37 W/m2 CLR
18:48 53.1 °F 42.0 °F 30.33 in Calm     66% 0.00 in WeatherDisplay:10.37 W/m2 CLR
18:53 52.9 °F 42.2 °F 30.33 in Calm     67% 0.00 in WeatherDisplay:10.37 W/m2 CLR
18:58 52.7 °F 42.0 °F 30.33 in Calm     67% 0.00 in WeatherDisplay:10.37 W/m2 CLR
19:03 52.7 °F 42.0 °F 30.33 in Calm     67% 0.00 in WeatherDisplay:10.37 W/m2 CLR
19:13 53.1 °F 42.0 °F 30.34 in Calm     66% 0.00 in WeatherDisplay:10.37 W/m2 CLR
19:19 53.2 °F 41.7 °F 30.34 in Calm     65% 0.00 in WeatherDisplay:10.37 W/m2 CLR
19:24 53.3 °F 41.8 °F 30.34 in Calm     65% 0.00 in WeatherDisplay:10.37 W/m2 CLR
19:29 53.0 °F 41.9 °F 30.34 in Calm     66% 0.00 in WeatherDisplay:10.37 W/m2 CLR
19:34 53.1 °F 42.0 °F 30.34 in Calm     66% 0.00 in WeatherDisplay:10.37 W/m2 CLR
19:39 52.9 °F 41.8 °F 30.34 in Calm     66% 0.00 in WeatherDisplay:10.37 W/m2 CLR
19:49 52.0 °F 41.8 °F 30.34 in Calm     68% 0.00 in WeatherDisplay:10.37 W/m2 CLR
19:54 51.6 °F 41.8 °F 30.34 in Calm     69% 0.00 in WeatherDisplay:10.37 W/m2 CLR
20:04 51.4 °F 41.6 °F 30.34 in Calm     69% 0.00 in WeatherDisplay:10.37 W/m2 CLR
20:15 50.9 °F 41.5 °F 30.35 in Calm     70% 0.00 in WeatherDisplay:10.37 W/m2 CLR
20:20 50.5 °F 41.4 °F 30.35 in Calm     71% 0.00 in WeatherDisplay:10.37 W/m2 CLR
20:25 50.2 °F 41.2 °F 30.35 in Calm     71% 0.00 in WeatherDisplay:10.37 W/m2 CLR
20:30 50.0 °F 41.0 °F 30.35 in Calm     71% 0.00 in WeatherDisplay:10.37 W/m2 CLR
20:35 50.3 °F 40.9 °F 30.35 in Calm     70% 0.00 in WeatherDisplay:10.37 W/m2 CLR
20:40 50.6 °F 41.2 °F 30.35 in Calm     70% 0.00 in WeatherDisplay:10.37 W/m2 CLR
20:45 50.4 °F 41.0 °F 30.35 in Calm     70% 0.00 in WeatherDisplay:10.37 W/m2 CLR
20:50 50.5 °F 41.1 °F 30.35 in Calm     70% 0.00 in WeatherDisplay:10.37 W/m2 CLR
21:00 50.2 °F 40.4 °F 30.35 in Calm     69% 0.00 in WeatherDisplay:10.37 W/m2 CLR
21:10 50.1 °F 40.3 °F 30.34 in Calm     69% 0.00 in WeatherDisplay:10.37 W/m2 CLR
21:15 49.7 °F 39.9 °F 30.34 in Calm     69% 0.00 in WeatherDisplay:10.37 W/m2 CLR
21:21 49.4 °F 39.7 °F 30.34 in Calm     69% 0.00 in WeatherDisplay:10.37 W/m2 CLR
21:26 49.2 °F 39.8 °F 30.34 in Calm     70% 0.00 in WeatherDisplay:10.37 W/m2 CLR
21:36 48.9 °F 39.5 °F 30.34 in Calm     70% 0.00 in WeatherDisplay:10.37 W/m2 CLR
21:46 48.7 °F 39.4 °F 30.34 in Calm     70% 0.00 in WeatherDisplay:10.37 W/m2 CLR
21:51 48.8 °F 39.4 °F 30.34 in Calm     70% 0.00 in WeatherDisplay:10.37 W/m2 CLR
21:56 49.4 °F 39.7 °F 30.35 in Calm     69% 0.00 in WeatherDisplay:10.37 W/m2 CLR
22:01 49.6 °F 39.5 °F 30.35 in Calm     68% 0.00 in WeatherDisplay:10.37 W/m2 CLR
22:06 49.4 °F 39.3 °F 30.35 in Calm     68% 0.00 in WeatherDisplay:10.37 W/m2 CLR
22:18 48.9 °F 39.2 °F 30.35 in Calm     69% 0.00 in WeatherDisplay:10.37 W/m2 CLR
22:20 48.9 °F 39.2 °F 30.35 in Calm     69% 0.00 in WeatherDisplay:10.37 W/m2 CLR
22:27 48.9 °F 38.8 °F 30.35 in Calm     68% 0.00 in WeatherDisplay:10.37 W/m2 CLR
22:29 48.8 °F 39.1 °F 30.35 in Calm     69% 0.00 in WeatherDisplay:10.37 W/m2 CLR
22:33 48.9 °F 39.2 °F 30.35 in Calm     69% 0.00 in WeatherDisplay:10.37 W/m2 CLR
22:34 48.9 °F 38.8 °F 30.35 in Calm     68% 0.00 in WeatherDisplay:10.37 W/m2 CLR
22:44 49.3 °F 39.2 °F 30.35 in Calm     68% 0.00 in WeatherDisplay:10.37 W/m2 CLR
22:49 49.3 °F 39.2 °F 30.36 in Calm     68% 0.00 in WeatherDisplay:10.37 W/m2 CLR
22:54 49.0 °F 39.3 °F 30.36 in Calm     69% 0.00 in WeatherDisplay:10.37 W/m2 CLR
22:59 48.6 °F 38.9 °F 30.36 in Calm     69% 0.00 in WeatherDisplay:10.37 W/m2 CLR
23:09 48.0 °F 39.0 °F 30.36 in Calm     71% 0.00 in WeatherDisplay:10.37 W/m2 CLR
23:20 47.3 °F 38.7 °F 30.36 in Calm     72% 0.00 in WeatherDisplay:10.37 W/m2 CLR
23:25 47.4 °F 38.5 °F 30.36 in Calm     71% 0.00 in WeatherDisplay:10.37 W/m2 CLR
23:35 47.3 °F 38.4 °F 30.36 in Calm     71% 0.00 in WeatherDisplay:10.37 W/m2 CLR
23:40 47.3 °F 38.4 °F 30.36 in Calm     71% 0.00 in WeatherDisplay:10.37 W/m2 CLR
23:50 47.2 °F 38.3 °F 30.36 in Calm     71% 0.00 in WeatherDisplay:10.37 W/m2 CLR
23:55 46.8 °F 38.2 °F 30.36 in Calm     72% 0.00 in WeatherDisplay:10.37 W/m2 CLR
Piedmont Bend
Compliments of Weather Underground - 4 mb